sensor_id;sensor_type;location;lat;lon;timestamp;P1;durP1;ratioP1;P2;durP2;ratioP2
4102;SDS011;2065;49.790;9.620;2023-05-10T00:02:08;2.20;;;2.00;;
4102;SDS011;2065;49.790;9.620;2023-05-10T00:04:35;4.23;;;2.93;;
4102;SDS011;2065;49.790;9.620;2023-05-10T00:07:02;2.10;;;2.00;;
4102;SDS011;2065;49.790;9.620;2023-05-10T00:09:30;2.50;;;2.27;;
4102;SDS011;2065;49.790;9.620;2023-05-10T00:11:57;3.20;;;1.87;;
4102;SDS011;2065;49.790;9.620;2023-05-10T00:14:24;1.70;;;1.60;;
4102;SDS011;2065;49.790;9.620;2023-05-10T00:16:52;2.57;;;2.10;;
4102;SDS011;2065;49.790;9.620;2023-05-10T00:19:19;2.30;;;2.10;;
4102;SDS011;2065;49.790;9.620;2023-05-10T00:21:46;2.53;;;2.33;;
4102;SDS011;2065;49.790;9.620;2023-05-10T00:24:13;2.17;;;1.97;;
4102;SDS011;2065;49.790;9.620;2023-05-10T00:26:41;1.90;;;1.80;;
4102;SDS011;2065;49.790;9.620;2023-05-10T00:29:08;2.67;;;2.13;;
4102;SDS011;2065;49.790;9.620;2023-05-10T00:31:35;2.17;;;1.97;;
4102;SDS011;2065;49.790;9.620;2023-05-10T00:34:02;4.63;;;2.40;;
4102;SDS011;2065;49.790;9.620;2023-05-10T00:36:29;3.10;;;2.10;;
4102;SDS011;2065;49.790;9.620;2023-05-10T00:38:56;3.40;;;2.50;;
4102;SDS011;2065;49.790;9.620;2023-05-10T00:41:23;2.10;;;2.00;;
4102;SDS011;2065;49.790;9.620;2023-05-10T00:43:51;7.70;;;2.27;;
4102;SDS011;2065;49.790;9.620;2023-05-10T00:46:18;2.90;;;2.70;;
4102;SDS011;2065;49.790;9.620;2023-05-10T00:48:45;2.70;;;2.03;;
4102;SDS011;2065;49.790;9.620;2023-05-10T00:51:13;2.90;;;1.80;;
4102;SDS011;2065;49.790;9.620;2023-05-10T00:53:40;5.83;;;2.40;;
4102;SDS011;2065;49.790;9.620;2023-05-10T00:56:07;3.83;;;2.27;;
4102;SDS011;2065;49.790;9.620;2023-05-10T00:58:34;3.10;;;1.90;;
4102;SDS011;2065;49.790;9.620;2023-05-10T01:01:02;2.43;;;2.23;;
4102;SDS011;2065;49.790;9.620;2023-05-10T01:03:31;2.27;;;2.07;;
4102;SDS011;2065;49.790;9.620;2023-05-10T01:05:58;1.70;;;1.60;;
4102;SDS011;2065;49.790;9.620;2023-05-10T01:08:25;1.80;;;1.57;;
4102;SDS011;2065;49.790;9.620;2023-05-10T01:10:53;1.77;;;1.40;;
4102;SDS011;2065;49.790;9.620;2023-05-10T01:13:23;1.73;;;1.63;;
4102;SDS011;2065;49.790;9.620;2023-05-10T01:15:59;1.80;;;1.70;;
4102;SDS011;2065;49.790;9.620;2023-05-10T01:18:28;1.67;;;1.57;;
4102;SDS011;2065;49.790;9.620;2023-05-10T01:20:59;1.70;;;1.60;;
4102;SDS011;2065;49.790;9.620;2023-05-10T01:29:47;1.93;;;1.33;;
4102;SDS011;2065;49.790;9.620;2023-05-10T01:32:30;1.47;;;1.37;;
4102;SDS011;2065;49.790;9.620;2023-05-10T01:35:03;1.40;;;1.30;;
4102;SDS011;2065;49.790;9.620;2023-05-10T01:37:36;1.27;;;0.93;;
4102;SDS011;2065;49.790;9.620;2023-05-10T01:40:12;3.00;;;1.00;;
4102;SDS011;2065;49.790;9.620;2023-05-10T01:42:47;1.87;;;1.27;;
4102;SDS011;2065;49.790;9.620;2023-05-10T01:45:20;1.13;;;1.00;;
4102;SDS011;2065;49.790;9.620;2023-05-10T01:47:56;1.20;;;1.10;;
4102;SDS011;2065;49.790;9.620;2023-05-10T01:50:32;5.17;;;1.10;;
4102;SDS011;2065;49.790;9.620;2023-05-10T01:53:00;1.30;;;1.00;;
4102;SDS011;2065;49.790;9.620;2023-05-10T01:55:32;1.10;;;1.00;;
4102;SDS011;2065;49.790;9.620;2023-05-10T01:58:03;0.90;;;0.90;;
4102;SDS011;2065;49.790;9.620;2023-05-10T02:00:34;1.10;;;0.90;;
4102;SDS011;2065;49.790;9.620;2023-05-10T02:03:05;2.93;;;0.90;;
4102;SDS011;2065;49.790;9.620;2023-05-10T02:05:36;0.97;;;0.90;;
4102;SDS011;2065;49.790;9.620;2023-05-10T02:08:05;0.90;;;0.80;;
4102;SDS011;2065;49.790;9.620;2023-05-10T02:10:36;2.33;;;0.93;;
4102;SDS011;2065;49.790;9.620;2023-05-10T02:13:05;2.17;;;0.87;;
4102;SDS011;2065;49.790;9.620;2023-05-10T02:15:33;1.23;;;1.10;;
4102;SDS011;2065;49.790;9.620;2023-05-10T02:18:01;0.80;;;0.77;;
4102;SDS011;2065;49.790;9.620;2023-05-10T02:20:32;7.43;;;1.20;;
4102;SDS011;2065;49.790;9.620;2023-05-10T02:23:00;1.13;;;1.00;;
4102;SDS011;2065;49.790;9.620;2023-05-10T02:25:29;3.10;;;1.23;;
4102;SDS011;2065;49.790;9.620;2023-05-10T02:27:59;2.50;;;0.90;;
4102;SDS011;2065;49.790;9.620;2023-05-10T02:30:29;1.00;;;0.90;;
4102;SDS011;2065;49.790;9.620;2023-05-10T02:32:58;0.90;;;0.83;;
4102;SDS011;2065;49.790;9.620;2023-05-10T02:35:31;1.13;;;1.03;;
4102;SDS011;2065;49.790;9.620;2023-05-10T02:38:01;1.00;;;0.90;;
4102;SDS011;2065;49.790;9.620;2023-05-10T02:40:29;0.80;;;0.80;;
4102;SDS011;2065;49.790;9.620;2023-05-10T02:42:58;2.20;;;0.90;;
4102;SDS011;2065;49.790;9.620;2023-05-10T02:45:28;0.80;;;0.73;;
4102;SDS011;2065;49.790;9.620;2023-05-10T02:47:58;0.80;;;0.70;;
4102;SDS011;2065;49.790;9.620;2023-05-10T02:50:25;0.97;;;0.80;;
4102;SDS011;2065;49.790;9.620;2023-05-10T02:52:55;0.83;;;0.80;;
4102;SDS011;2065;49.790;9.620;2023-05-10T02:55:31;1.00;;;0.90;;
4102;SDS011;2065;49.790;9.620;2023-05-10T02:58:03;1.00;;;0.90;;
4102;SDS011;2065;49.790;9.620;2023-05-10T03:00:31;1.87;;;1.00;;
4102;SDS011;2065;49.790;9.620;2023-05-10T03:02:58;1.03;;;0.87;;
4102;SDS011;2065;49.790;9.620;2023-05-10T03:05:27;3.17;;;0.90;;
4102;SDS011;2065;49.790;9.620;2023-05-10T03:07:59;0.80;;;0.73;;
4102;SDS011;2065;49.790;9.620;2023-05-10T03:10:29;1.00;;;0.90;;
4102;SDS011;2065;49.790;9.620;2023-05-10T03:13:01;0.80;;;0.80;;
4102;SDS011;2065;49.790;9.620;2023-05-10T03:15:39;0.90;;;0.80;;
4102;SDS011;2065;49.790;9.620;2023-05-10T03:18:15;0.90;;;0.80;;
4102;SDS011;2065;49.790;9.620;2023-05-10T03:20:46;1.00;;;0.90;;
4102;SDS011;2065;49.790;9.620;2023-05-10T03:23:19;0.90;;;0.80;;
4102;SDS011;2065;49.790;9.620;2023-05-10T03:25:49;1.00;;;0.90;;
4102;SDS011;2065;49.790;9.620;2023-05-10T03:28:17;1.00;;;0.90;;
4102;SDS011;2065;49.790;9.620;2023-05-10T03:30:45;2.50;;;1.10;;
4102;SDS011;2065;49.790;9.620;2023-05-10T03:33:13;1.13;;;1.03;;
4102;SDS011;2065;49.790;9.620;2023-05-10T03:35:43;1.70;;;1.10;;
4102;SDS011;2065;49.790;9.620;2023-05-10T03:38:11;1.47;;;1.30;;
4102;SDS011;2065;49.790;9.620;2023-05-10T03:40:39;1.73;;;1.00;;
4102;SDS011;2065;49.790;9.620;2023-05-10T03:43:07;1.03;;;0.93;;
4102;SDS011;2065;49.790;9.620;2023-05-10T03:45:34;1.17;;;1.00;;
4102;SDS011;2065;49.790;9.620;2023-05-10T03:48:02;1.03;;;0.93;;
4102;SDS011;2065;49.790;9.620;2023-05-10T03:50:29;2.10;;;1.20;;
4102;SDS011;2065;49.790;9.620;2023-05-10T03:52:56;1.13;;;1.03;;
4102;SDS011;2065;49.790;9.620;2023-05-10T03:55:23;1.10;;;1.00;;
4102;SDS011;2065;49.790;9.620;2023-05-10T03:57:52;1.10;;;1.00;;
4102;SDS011;2065;49.790;9.620;2023-05-10T04:00:21;1.00;;;0.90;;
4102;SDS011;2065;49.790;9.620;2023-05-10T04:02:50;1.63;;;1.03;;
4102;SDS011;2065;49.790;9.620;2023-05-10T04:05:18;1.17;;;1.07;;
4102;SDS011;2065;49.790;9.620;2023-05-10T04:07:45;1.17;;;1.07;;
4102;SDS011;2065;49.790;9.620;2023-05-10T04:10:14;2.83;;;1.10;;
4102;SDS011;2065;49.790;9.620;2023-05-10T04:12:42;2.47;;;1.13;;
4102;SDS011;2065;49.790;9.620;2023-05-10T04:15:11;3.43;;;1.23;;
4102;SDS011;2065;49.790;9.620;2023-05-10T04:17:38;2.93;;;1.20;;
4102;SDS011;2065;49.790;9.620;2023-05-10T04:20:05;1.27;;;1.17;;
4102;SDS011;2065;49.790;9.620;2023-05-10T04:22:33;1.10;;;1.00;;
4102;SDS011;2065;49.790;9.620;2023-05-10T04:25:00;2.03;;;1.27;;
4102;SDS011;2065;49.790;9.620;2023-05-10T04:27:27;2.17;;;1.30;;
4102;SDS011;2065;49.790;9.620;2023-05-10T04:29:54;1.40;;;1.30;;
4102;SDS011;2065;49.790;9.620;2023-05-10T04:32:22;3.03;;;1.73;;
4102;SDS011;2065;49.790;9.620;2023-05-10T04:34:49;1.40;;;1.30;;
4102;SDS011;2065;49.790;9.620;2023-05-10T04:37:17;1.20;;;1.10;;
4102;SDS011;2065;49.790;9.620;2023-05-10T04:39:44;3.10;;;1.30;;
4102;SDS011;2065;49.790;9.620;2023-05-10T04:42:11;3.63;;;1.27;;
4102;SDS011;2065;49.790;9.620;2023-05-10T04:44:40;1.60;;;1.50;;
4102;SDS011;2065;49.790;9.620;2023-05-10T04:47:07;1.50;;;1.40;;
4102;SDS011;2065;49.790;9.620;2023-05-10T04:49:35;2.03;;;1.60;;
4102;SDS011;2065;49.790;9.620;2023-05-10T04:52:02;1.30;;;1.20;;
4102;SDS011;2065;49.790;9.620;2023-05-10T04:54:29;2.50;;;1.40;;
4102;SDS011;2065;49.790;9.620;2023-05-10T04:56:55;1.60;;;1.50;;
4102;SDS011;2065;49.790;9.620;2023-05-10T04:59:22;1.40;;;1.03;;
4102;SDS011;2065;49.790;9.620;2023-05-10T05:01:49;1.67;;;1.57;;
4102;SDS011;2065;49.790;9.620;2023-05-10T05:04:16;5.23;;;1.33;;
4102;SDS011;2065;49.790;9.620;2023-05-10T05:06:44;1.50;;;1.40;;
4102;SDS011;2065;49.790;9.620;2023-05-10T05:09:11;1.43;;;1.33;;
4102;SDS011;2065;49.790;9.620;2023-05-10T05:11:38;1.50;;;1.40;;
4102;SDS011;2065;49.790;9.620;2023-05-10T05:14:05;2.10;;;1.40;;
4102;SDS011;2065;49.790;9.620;2023-05-10T05:16:33;1.67;;;1.50;;
4102;SDS011;2065;49.790;9.620;2023-05-10T05:18:59;1.70;;;1.30;;
4102;SDS011;2065;49.790;9.620;2023-05-10T05:21:27;2.60;;;1.50;;
4102;SDS011;2065;49.790;9.620;2023-05-10T05:23:55;1.30;;;1.20;;
4102;SDS011;2065;49.790;9.620;2023-05-10T05:26:22;1.63;;;1.53;;
4102;SDS011;2065;49.790;9.620;2023-05-10T05:28:49;1.53;;;1.43;;
4102;SDS011;2065;49.790;9.620;2023-05-10T05:31:19;1.83;;;1.73;;
4102;SDS011;2065;49.790;9.620;2023-05-10T05:33:46;2.90;;;1.40;;
4102;SDS011;2065;49.790;9.620;2023-05-10T05:36:13;1.40;;;1.30;;
4102;SDS011;2065;49.790;9.620;2023-05-10T05:38:40;1.77;;;1.67;;
4102;SDS011;2065;49.790;9.620;2023-05-10T05:41:08;2.57;;;1.60;;
4102;SDS011;2065;49.790;9.620;2023-05-10T05:43:35;1.50;;;1.40;;
4102;SDS011;2065;49.790;9.620;2023-05-10T05:46:02;2.80;;;1.80;;
4102;SDS011;2065;49.790;9.620;2023-05-10T05:48:29;1.73;;;1.63;;
4102;SDS011;2065;49.790;9.620;2023-05-10T05:50:57;3.57;;;2.07;;
4102;SDS011;2065;49.790;9.620;2023-05-10T05:53:24;1.70;;;1.60;;
4102;SDS011;2065;49.790;9.620;2023-05-10T05:55:52;2.10;;;2.00;;
4102;SDS011;2065;49.790;9.620;2023-05-10T05:58:21;1.80;;;1.70;;
4102;SDS011;2065;49.790;9.620;2023-05-10T06:00:48;2.20;;;1.97;;
4102;SDS011;2065;49.790;9.620;2023-05-10T06:03:15;2.10;;;2.00;;
4102;SDS011;2065;49.790;9.620;2023-05-10T06:05:42;2.20;;;2.00;;
4102;SDS011;2065;49.790;9.620;2023-05-10T06:08:09;2.37;;;2.17;;
4102;SDS011;2065;49.790;9.620;2023-05-10T06:10:36;2.17;;;1.97;;
4102;SDS011;2065;49.790;9.620;2023-05-10T06:13:03;3.70;;;2.67;;
4102;SDS011;2065;49.790;9.620;2023-05-10T06:15:32;2.47;;;2.00;;
4102;SDS011;2065;49.790;9.620;2023-05-10T06:17:59;3.97;;;3.00;;
4102;SDS011;2065;49.790;9.620;2023-05-10T06:20:26;3.80;;;2.67;;
4102;SDS011;2065;49.790;9.620;2023-05-10T06:22:53;4.77;;;2.30;;
4102;SDS011;2065;49.790;9.620;2023-05-10T06:25:20;2.50;;;2.30;;
4102;SDS011;2065;49.790;9.620;2023-05-10T06:27:47;2.57;;;2.00;;
4102;SDS011;2065;49.790;9.620;2023-05-10T06:30:15;3.10;;;2.80;;
4102;SDS011;2065;49.790;9.620;2023-05-10T06:32:43;2.60;;;2.40;;
4102;SDS011;2065;49.790;9.620;2023-05-10T06:35:11;3.87;;;2.60;;
4102;SDS011;2065;49.790;9.620;2023-05-10T06:37:38;2.40;;;2.20;;
4102;SDS011;2065;49.790;9.620;2023-05-10T06:40:05;3.20;;;2.30;;
4102;SDS011;2065;49.790;9.620;2023-05-10T06:42:34;2.90;;;2.70;;
4102;SDS011;2065;49.790;9.620;2023-05-10T06:45:02;3.77;;;2.17;;
4102;SDS011;2065;49.790;9.620;2023-05-10T06:47:29;5.80;;;2.57;;
4102;SDS011;2065;49.790;9.620;2023-05-10T06:49:58;2.23;;;2.03;;
4102;SDS011;2065;49.790;9.620;2023-05-10T06:52:25;2.70;;;1.97;;
4102;SDS011;2065;49.790;9.620;2023-05-10T06:54:52;3.00;;;1.97;;
4102;SDS011;2065;49.790;9.620;2023-05-10T06:57:19;5.73;;;2.13;;
4102;SDS011;2065;49.790;9.620;2023-05-10T06:59:46;2.40;;;2.20;;
4102;SDS011;2065;49.790;9.620;2023-05-10T07:02:12;2.30;;;2.10;;
4102;SDS011;2065;49.790;9.620;2023-05-10T07:04:40;3.07;;;2.43;;
4102;SDS011;2065;49.790;9.620;2023-05-10T07:07:08;6.70;;;2.33;;
4102;SDS011;2065;49.790;9.620;2023-05-10T07:09:35;5.43;;;2.30;;
4102;SDS011;2065;49.790;9.620;2023-05-10T07:12:02;3.60;;;2.20;;
4102;SDS011;2065;49.790;9.620;2023-05-10T07:14:29;4.17;;;2.40;;
4102;SDS011;2065;49.790;9.620;2023-05-10T07:16:56;3.90;;;2.17;;
4102;SDS011;2065;49.790;9.620;2023-05-10T07:19:24;2.90;;;2.43;;
4102;SDS011;2065;49.790;9.620;2023-05-10T07:21:51;2.30;;;2.10;;
4102;SDS011;2065;49.790;9.620;2023-05-10T07:24:20;2.53;;;2.00;;
4102;SDS011;2065;49.790;9.620;2023-05-10T07:26:47;2.80;;;2.00;;
4102;SDS011;2065;49.790;9.620;2023-05-10T07:29:14;3.93;;;2.27;;
4102;SDS011;2065;49.790;9.620;2023-05-10T07:31:40;5.00;;;2.30;;
4102;SDS011;2065;49.790;9.620;2023-05-10T07:34:08;1.90;;;1.80;;
4102;SDS011;2065;49.790;9.620;2023-05-10T07:36:35;1.77;;;1.67;;
4102;SDS011;2065;49.790;9.620;2023-05-10T07:39:02;2.70;;;2.10;;
4102;SDS011;2065;49.790;9.620;2023-05-10T07:41:30;2.70;;;1.83;;
4102;SDS011;2065;49.790;9.620;2023-05-10T07:43:58;3.20;;;1.70;;
4102;SDS011;2065;49.790;9.620;2023-05-10T07:46:24;2.60;;;2.00;;
4102;SDS011;2065;49.790;9.620;2023-05-10T07:48:51;1.67;;;1.57;;
4102;SDS011;2065;49.790;9.620;2023-05-10T07:51:18;5.03;;;1.83;;
4102;SDS011;2065;49.790;9.620;2023-05-10T07:53:45;1.73;;;1.63;;
4102;SDS011;2065;49.790;9.620;2023-05-10T07:56:22;2.23;;;1.80;;
4102;SDS011;2065;49.790;9.620;2023-05-10T07:58:53;4.37;;;1.70;;
4102;SDS011;2065;49.790;9.620;2023-05-10T08:01:20;3.20;;;1.70;;
4102;SDS011;2065;49.790;9.620;2023-05-10T08:03:48;2.27;;;2.00;;
4102;SDS011;2065;49.790;9.620;2023-05-10T08:06:16;4.57;;;2.03;;
4102;SDS011;2065;49.790;9.620;2023-05-10T08:08:44;3.30;;;2.13;;
4102;SDS011;2065;49.790;9.620;2023-05-10T08:11:14;1.90;;;1.80;;
4102;SDS011;2065;49.790;9.620;2023-05-10T08:13:41;6.50;;;1.90;;
4102;SDS011;2065;49.790;9.620;2023-05-10T08:16:09;5.13;;;1.93;;
4102;SDS011;2065;49.790;9.620;2023-05-10T08:18:37;4.63;;;1.70;;
4102;SDS011;2065;49.790;9.620;2023-05-10T08:21:04;3.37;;;1.87;;
4102;SDS011;2065;49.790;9.620;2023-05-10T08:23:31;1.87;;;1.77;;
4102;SDS011;2065;49.790;9.620;2023-05-10T08:25:58;5.47;;;1.90;;
4102;SDS011;2065;49.790;9.620;2023-05-10T08:28:25;1.80;;;1.70;;
4102;SDS011;2065;49.790;9.620;2023-05-10T08:30:52;2.20;;;2.00;;
4102;SDS011;2065;49.790;9.620;2023-05-10T08:33:20;1.60;;;1.50;;
4102;SDS011;2065;49.790;9.620;2023-05-10T08:35:47;2.03;;;1.70;;
4102;SDS011;2065;49.790;9.620;2023-05-10T08:38:14;2.13;;;2.03;;
4102;SDS011;2065;49.790;9.620;2023-05-10T08:40:42;4.73;;;2.13;;
4102;SDS011;2065;49.790;9.620;2023-05-10T08:43:12;2.00;;;1.83;;
4102;SDS011;2065;49.790;9.620;2023-05-10T08:45:40;2.10;;;1.90;;
4102;SDS011;2065;49.790;9.620;2023-05-10T08:48:09;2.20;;;2.00;;
4102;SDS011;2065;49.790;9.620;2023-05-10T08:50:38;2.33;;;2.10;;
4102;SDS011;2065;49.790;9.620;2023-05-10T08:53:09;2.20;;;1.60;;
4102;SDS011;2065;49.790;9.620;2023-05-10T08:55:38;3.00;;;1.90;;
4102;SDS011;2065;49.790;9.620;2023-05-10T08:58:07;2.63;;;1.70;;
4102;SDS011;2065;49.790;9.620;2023-05-10T09:00:35;1.93;;;1.83;;
4102;SDS011;2065;49.790;9.620;2023-05-10T09:03:03;3.17;;;2.20;;
4102;SDS011;2065;49.790;9.620;2023-05-10T09:05:31;2.27;;;2.10;;
4102;SDS011;2065;49.790;9.620;2023-05-10T09:08:00;5.77;;;2.23;;
4102;SDS011;2065;49.790;9.620;2023-05-10T09:10:27;1.77;;;1.67;;
4102;SDS011;2065;49.790;9.620;2023-05-10T09:12:56;2.97;;;1.73;;
4102;SDS011;2065;49.790;9.620;2023-05-10T09:15:23;2.73;;;2.23;;
4102;SDS011;2065;49.790;9.620;2023-05-10T09:17:50;2.07;;;1.53;;
4102;SDS011;2065;49.790;9.620;2023-05-10T09:20:17;2.97;;;2.00;;
4102;SDS011;2065;49.790;9.620;2023-05-10T09:22:45;2.27;;;1.90;;
4102;SDS011;2065;49.790;9.620;2023-05-10T09:25:14;1.70;;;1.60;;
4102;SDS011;2065;49.790;9.620;2023-05-10T09:27:43;2.13;;;1.80;;
4102;SDS011;2065;49.790;9.620;2023-05-10T09:30:15;2.27;;;1.90;;
4102;SDS011;2065;49.790;9.620;2023-05-10T09:32:43;1.60;;;1.50;;
4102;SDS011;2065;49.790;9.620;2023-05-10T09:35:12;2.00;;;1.90;;
4102;SDS011;2065;49.790;9.620;2023-05-10T09:37:40;1.90;;;1.70;;
4102;SDS011;2065;49.790;9.620;2023-05-10T09:40:10;2.40;;;1.60;;
4102;SDS011;2065;49.790;9.620;2023-05-10T09:42:40;3.13;;;1.70;;
4102;SDS011;2065;49.790;9.620;2023-05-10T09:45:08;5.67;;;1.90;;
4102;SDS011;2065;49.790;9.620;2023-05-10T09:47:35;1.60;;;1.50;;
4102;SDS011;2065;49.790;9.620;2023-05-10T09:50:03;1.50;;;1.40;;
4102;SDS011;2065;49.790;9.620;2023-05-10T09:52:34;1.87;;;1.57;;
4102;SDS011;2065;49.790;9.620;2023-05-10T09:55:13;1.50;;;1.40;;
4102;SDS011;2065;49.790;9.620;2023-05-10T09:57:41;2.13;;;1.63;;
4102;SDS011;2065;49.790;9.620;2023-05-10T10:00:08;2.93;;;1.73;;
4102;SDS011;2065;49.790;9.620;2023-05-10T10:02:39;2.70;;;1.73;;
4102;SDS011;2065;49.790;9.620;2023-05-10T10:05:06;2.23;;;1.70;;
4102;SDS011;2065;49.790;9.620;2023-05-10T10:07:34;1.83;;;1.53;;
4102;SDS011;2065;49.790;9.620;2023-05-10T10:10:01;1.80;;;1.70;;
4102;SDS011;2065;49.790;9.620;2023-05-10T10:12:30;1.70;;;1.60;;
4102;SDS011;2065;49.790;9.620;2023-05-10T10:14:58;1.90;;;1.80;;
4102;SDS011;2065;49.790;9.620;2023-05-10T10:17:26;1.77;;;1.67;;
4102;SDS011;2065;49.790;9.620;2023-05-10T10:19:55;1.40;;;1.30;;
4102;SDS011;2065;49.790;9.620;2023-05-10T10:22:23;2.03;;;1.77;;
4102;SDS011;2065;49.790;9.620;2023-05-10T10:24:50;5.27;;;1.67;;
4102;SDS011;2065;49.790;9.620;2023-05-10T10:27:19;1.90;;;1.70;;
4102;SDS011;2065;49.790;9.620;2023-05-10T10:29:55;1.70;;;1.60;;
4102;SDS011;2065;49.790;9.620;2023-05-10T10:32:33;1.80;;;1.60;;
4102;SDS011;2065;49.790;9.620;2023-05-10T10:35:08;2.00;;;1.90;;
4102;SDS011;2065;49.790;9.620;2023-05-10T10:37:43;1.83;;;1.70;;
4102;SDS011;2065;49.790;9.620;2023-05-10T10:40:27;1.80;;;1.70;;
4102;SDS011;2065;49.790;9.620;2023-05-10T10:42:55;1.83;;;1.73;;
4102;SDS011;2065;49.790;9.620;2023-05-10T10:45:24;6.83;;;2.00;;
4102;SDS011;2065;49.790;9.620;2023-05-10T10:50:46;2.80;;;1.60;;
4102;SDS011;2065;49.790;9.620;2023-05-10T10:53:13;1.70;;;1.60;;
4102;SDS011;2065;49.790;9.620;2023-05-10T10:55:47;1.83;;;1.60;;
4102;SDS011;2065;49.790;9.620;2023-05-10T10:58:28;1.83;;;1.70;;
4102;SDS011;2065;49.790;9.620;2023-05-10T11:01:09;1.67;;;1.57;;
4102;SDS011;2065;49.790;9.620;2023-05-10T11:03:38;3.67;;;1.70;;
4102;SDS011;2065;49.790;9.620;2023-05-10T11:06:05;3.60;;;1.80;;
4102;SDS011;2065;49.790;9.620;2023-05-10T11:08:33;1.87;;;1.77;;
4102;SDS011;2065;49.790;9.620;2023-05-10T11:11:07;2.23;;;1.70;;
4102;SDS011;2065;49.790;9.620;2023-05-10T11:13:36;3.37;;;1.47;;
4102;SDS011;2065;49.790;9.620;2023-05-10T11:16:13;3.63;;;1.67;;
4102;SDS011;2065;49.790;9.620;2023-05-10T11:18:57;1.60;;;1.50;;
4102;SDS011;2065;49.790;9.620;2023-05-10T11:21:27;1.50;;;1.40;;
4102;SDS011;2065;49.790;9.620;2023-05-10T11:23:54;1.83;;;1.73;;
4102;SDS011;2065;49.790;9.620;2023-05-10T11:26:22;2.17;;;1.60;;
4102;SDS011;2065;49.790;9.620;2023-05-10T11:28:51;1.50;;;1.40;;
4102;SDS011;2065;49.790;9.620;2023-05-10T11:31:22;1.70;;;1.60;;
4102;SDS011;2065;49.790;9.620;2023-05-10T11:33:52;1.93;;;1.30;;
4102;SDS011;2065;49.790;9.620;2023-05-10T11:36:20;3.47;;;1.67;;
4102;SDS011;2065;49.790;9.620;2023-05-10T11:38:50;1.53;;;1.43;;
4102;SDS011;2065;49.790;9.620;2023-05-10T11:41:18;4.20;;;1.60;;
4102;SDS011;2065;49.790;9.620;2023-05-10T11:43:47;4.43;;;1.70;;
4102;SDS011;2065;49.790;9.620;2023-05-10T11:46:17;2.10;;;1.63;;
4102;SDS011;2065;49.790;9.620;2023-05-10T11:48:48;3.13;;;1.63;;
4102;SDS011;2065;49.790;9.620;2023-05-10T11:51:19;6.63;;;5.93;;
4102;SDS011;2065;49.790;9.620;2023-05-10T11:53:47;3.13;;;2.07;;
4102;SDS011;2065;49.790;9.620;2023-05-10T11:56:15;2.97;;;2.77;;
4102;SDS011;2065;49.790;9.620;2023-05-10T11:58:42;2.43;;;2.23;;
4102;SDS011;2065;49.790;9.620;2023-05-10T12:01:09;3.90;;;2.53;;
4102;SDS011;2065;49.790;9.620;2023-05-10T12:03:36;2.33;;;2.13;;
4102;SDS011;2065;49.790;9.620;2023-05-10T12:06:06;4.00;;;3.00;;
4102;SDS011;2065;49.790;9.620;2023-05-10T12:08:33;3.33;;;2.20;;
4102;SDS011;2065;49.790;9.620;2023-05-10T12:11:04;2.33;;;2.20;;
4102;SDS011;2065;49.790;9.620;2023-05-10T12:13:32;5.57;;;2.27;;
4102;SDS011;2065;49.790;9.620;2023-05-10T12:16:12;11.67;;;2.73;;
4102;SDS011;2065;49.790;9.620;2023-05-10T12:18:39;5.73;;;2.63;;
4102;SDS011;2065;49.790;9.620;2023-05-10T12:21:08;4.47;;;2.60;;
4102;SDS011;2065;49.790;9.620;2023-05-10T12:23:36;5.53;;;2.10;;
4102;SDS011;2065;49.790;9.620;2023-05-10T12:26:04;3.97;;;2.00;;
4102;SDS011;2065;49.790;9.620;2023-05-10T12:28:31;1.67;;;1.57;;
4102;SDS011;2065;49.790;9.620;2023-05-10T12:30:59;3.23;;;2.03;;
4102;SDS011;2065;49.790;9.620;2023-05-10T12:33:27;2.60;;;1.80;;
4102;SDS011;2065;49.790;9.620;2023-05-10T12:36:02;1.50;;;1.40;;
4102;SDS011;2065;49.790;9.620;2023-05-10T12:38:31;1.73;;;1.60;;
4102;SDS011;2065;49.790;9.620;2023-05-10T12:41:00;11.07;;;1.90;;
4102;SDS011;2065;49.790;9.620;2023-05-10T12:43:28;2.40;;;1.60;;
4102;SDS011;2065;49.790;9.620;2023-05-10T12:45:56;5.53;;;1.50;;
4102;SDS011;2065;49.790;9.620;2023-05-10T12:48:23;3.17;;;2.13;;
4102;SDS011;2065;49.790;9.620;2023-05-10T12:50:50;3.53;;;3.23;;
4102;SDS011;2065;49.790;9.620;2023-05-10T12:53:17;1.90;;;1.80;;
4102;SDS011;2065;49.790;9.620;2023-05-10T12:55:45;1.83;;;1.70;;
4102;SDS011;2065;49.790;9.620;2023-05-10T12:58:12;1.57;;;1.47;;
4102;SDS011;2065;49.790;9.620;2023-05-10T13:00:39;1.70;;;1.60;;
4102;SDS011;2065;49.790;9.620;2023-05-10T13:03:06;1.70;;;1.60;;
4102;SDS011;2065;49.790;9.620;2023-05-10T13:05:32;1.90;;;1.70;;
4102;SDS011;2065;49.790;9.620;2023-05-10T13:07:59;2.33;;;2.13;;
4102;SDS011;2065;49.790;9.620;2023-05-10T13:10:27;1.90;;;1.80;;
4102;SDS011;2065;49.790;9.620;2023-05-10T13:12:56;3.20;;;1.77;;
4102;SDS011;2065;49.790;9.620;2023-05-10T13:15:24;2.10;;;2.00;;
4102;SDS011;2065;49.790;9.620;2023-05-10T13:17:51;2.40;;;1.93;;
4102;SDS011;2065;49.790;9.620;2023-05-10T13:20:19;2.60;;;1.70;;
4102;SDS011;2065;49.790;9.620;2023-05-10T13:22:46;1.80;;;1.57;;
4102;SDS011;2065;49.790;9.620;2023-05-10T13:25:13;2.60;;;2.40;;
4102;SDS011;2065;49.790;9.620;2023-05-10T13:27:40;2.17;;;2.00;;
4102;SDS011;2065;49.790;9.620;2023-05-10T13:30:09;9.33;;;2.23;;
4102;SDS011;2065;49.790;9.620;2023-05-10T13:32:36;2.33;;;1.70;;
4102;SDS011;2065;49.790;9.620;2023-05-10T13:35:04;2.90;;;1.60;;
4102;SDS011;2065;49.790;9.620;2023-05-10T13:37:32;2.30;;;1.60;;
4102;SDS011;2065;49.790;9.620;2023-05-10T13:40:00;1.90;;;1.60;;
4102;SDS011;2065;49.790;9.620;2023-05-10T13:42:27;1.90;;;1.80;;
4102;SDS011;2065;49.790;9.620;2023-05-10T13:44:54;1.80;;;1.70;;
4102;SDS011;2065;49.790;9.620;2023-05-10T13:47:23;1.90;;;1.80;;
4102;SDS011;2065;49.790;9.620;2023-05-10T13:49:50;2.33;;;2.13;;
4102;SDS011;2065;49.790;9.620;2023-05-10T13:52:16;2.30;;;2.10;;
4102;SDS011;2065;49.790;9.620;2023-05-10T13:54:44;2.00;;;1.90;;
4102;SDS011;2065;49.790;9.620;2023-05-10T13:57:11;2.47;;;2.27;;
4102;SDS011;2065;49.790;9.620;2023-05-10T13:59:39;2.23;;;2.13;;
4102;SDS011;2065;49.790;9.620;2023-05-10T14:02:06;1.90;;;1.80;;
4102;SDS011;2065;49.790;9.620;2023-05-10T14:04:34;3.60;;;1.60;;
4102;SDS011;2065;49.790;9.620;2023-05-10T14:07:01;2.40;;;1.70;;
4102;SDS011;2065;49.790;9.620;2023-05-10T14:09:28;2.37;;;2.17;;
4102;SDS011;2065;49.790;9.620;2023-05-10T14:11:55;2.47;;;2.00;;
4102;SDS011;2065;49.790;9.620;2023-05-10T14:14:23;1.77;;;1.60;;
4102;SDS011;2065;49.790;9.620;2023-05-10T14:16:50;2.30;;;2.10;;
4102;SDS011;2065;49.790;9.620;2023-05-10T14:19:17;2.53;;;2.33;;
4102;SDS011;2065;49.790;9.620;2023-05-10T14:21:45;2.10;;;2.00;;
4102;SDS011;2065;49.790;9.620;2023-05-10T14:24:12;2.37;;;2.17;;
4102;SDS011;2065;49.790;9.620;2023-05-10T14:26:39;2.80;;;2.60;;
4102;SDS011;2065;49.790;9.620;2023-05-10T14:29:06;2.40;;;2.20;;
4102;SDS011;2065;49.790;9.620;2023-05-10T14:31:33;4.23;;;2.57;;
4102;SDS011;2065;49.790;9.620;2023-05-10T14:34:00;2.97;;;2.30;;
4102;SDS011;2065;49.790;9.620;2023-05-10T14:36:28;4.23;;;2.10;;
4102;SDS011;2065;49.790;9.620;2023-05-10T14:38:56;2.03;;;1.80;;
4102;SDS011;2065;49.790;9.620;2023-05-10T14:41:23;2.90;;;2.10;;
4102;SDS011;2065;49.790;9.620;2023-05-10T14:43:50;2.23;;;2.03;;
4102;SDS011;2065;49.790;9.620;2023-05-10T14:46:17;3.00;;;1.90;;
4102;SDS011;2065;49.790;9.620;2023-05-10T14:48:44;2.43;;;2.17;;
4102;SDS011;2065;49.790;9.620;2023-05-10T14:51:11;2.50;;;2.13;;
4102;SDS011;2065;49.790;9.620;2023-05-10T14:53:38;2.30;;;2.10;;
4102;SDS011;2065;49.790;9.620;2023-05-10T14:56:06;4.60;;;2.40;;
4102;SDS011;2065;49.790;9.620;2023-05-10T14:58:33;2.30;;;2.10;;
4102;SDS011;2065;49.790;9.620;2023-05-10T15:01:00;4.30;;;2.00;;
4102;SDS011;2065;49.790;9.620;2023-05-10T15:03:27;5.10;;;3.80;;
4102;SDS011;2065;49.790;9.620;2023-05-10T15:05:54;1.97;;;1.77;;
4102;SDS011;2065;49.790;9.620;2023-05-10T15:08:23;2.20;;;1.70;;
4102;SDS011;2065;49.790;9.620;2023-05-10T15:10:50;3.40;;;2.10;;
4102;SDS011;2065;49.790;9.620;2023-05-10T15:13:18;2.33;;;1.80;;
4102;SDS011;2065;49.790;9.620;2023-05-10T15:15:46;4.13;;;2.50;;
4102;SDS011;2065;49.790;9.620;2023-05-10T15:18:13;3.50;;;1.87;;
4102;SDS011;2065;49.790;9.620;2023-05-10T15:20:40;2.30;;;2.10;;
4102;SDS011;2065;49.790;9.620;2023-05-10T15:23:07;3.10;;;2.00;;
4102;SDS011;2065;49.790;9.620;2023-05-10T15:25:34;1.90;;;1.80;;
4102;SDS011;2065;49.790;9.620;2023-05-10T15:28:04;2.60;;;1.70;;
4102;SDS011;2065;49.790;9.620;2023-05-10T15:30:32;2.00;;;1.90;;
4102;SDS011;2065;49.790;9.620;2023-05-10T15:32:59;1.83;;;1.73;;